sensor_id;sensor_type;location;lat;lon;timestamp;P1;durP1;ratioP1;P2;durP2;ratioP2
80619;SDS011;69979;53.682;-2.690;2023-12-28T00:00:25;3;;;3;;
80619;SDS011;69979;53.682;-2.690;2023-12-28T00:02:51;3;;;2;;
80619;SDS011;69979;53.682;-2.690;2023-12-28T00:05:16;4;;;3;;
80619;SDS011;69979;53.682;-2.690;2023-12-28T00:07:42;4;;;4;;
80619;SDS011;69979;53.682;-2.690;2023-12-28T00:10:07;7;;;5;;
80619;SDS011;69979;53.682;-2.690;2023-12-28T00:12:33;3;;;3;;
80619;SDS011;69979;53.682;-2.690;2023-12-28T00:14:58;8;;;7;;
80619;SDS011;69979;53.682;-2.690;2023-12-28T00:17:24;7;;;4;;
80619;SDS011;69979;53.682;-2.690;2023-12-28T00:19:49;4;;;3;;
80619;SDS011;69979;53.682;-2.690;2023-12-28T00:22:15;3;;;3;;
80619;SDS011;69979;53.682;-2.690;2023-12-28T00:24:41;4;;;2;;
80619;SDS011;69979;53.682;-2.690;2023-12-28T00:27:07;7;;;5;;
80619;SDS011;69979;53.682;-2.690;2023-12-28T00:29:32;3;;;3;;
80619;SDS011;69979;53.682;-2.690;2023-12-28T00:31:58;4;;;3;;
80619;SDS011;69979;53.682;-2.690;2023-12-28T00:34:24;4;;;2;;
80619;SDS011;69979;53.682;-2.690;2023-12-28T00:36:49;9;;;7;;
80619;SDS011;69979;53.682;-2.690;2023-12-28T00:39:15;7;;;5;;
80619;SDS011;69979;53.682;-2.690;2023-12-28T00:41:40;8;;;5;;
80619;SDS011;69979;53.682;-2.690;2023-12-28T00:44:06;8;;;7;;
80619;SDS011;69979;53.682;-2.690;2023-12-28T00:46:31;7;;;5;;
80619;SDS011;69979;53.682;-2.690;2023-12-28T00:48:57;8;;;7;;
80619;SDS011;69979;53.682;-2.690;2023-12-28T00:51:22;8;;;7;;
80619;SDS011;69979;53.682;-2.690;2023-12-28T00:53:47;7;;;5;;
80619;SDS011;69979;53.682;-2.690;2023-12-28T00:56:13;9;;;7;;
80619;SDS011;69979;53.682;-2.690;2023-12-28T00:58:39;6;;;4;;
80619;SDS011;69979;53.682;-2.690;2023-12-28T01:01:04;8;;;7;;
80619;SDS011;69979;53.682;-2.690;2023-12-28T01:03:29;9;;;5;;
80619;SDS011;69979;53.682;-2.690;2023-12-28T01:05:55;4;;;3;;
80619;SDS011;69979;53.682;-2.690;2023-12-28T01:08:21;10;;;8;;
80619;SDS011;69979;53.682;-2.690;2023-12-28T01:10:46;5;;;4;;
80619;SDS011;69979;53.682;-2.690;2023-12-28T01:13:12;11;;;8;;
80619;SDS011;69979;53.682;-2.690;2023-12-28T01:15:37;9;;;8;;
80619;SDS011;69979;53.682;-2.690;2023-12-28T01:18:02;11;;;10;;
80619;SDS011;69979;53.682;-2.690;2023-12-28T01:20:28;8;;;6;;
80619;SDS011;69979;53.682;-2.690;2023-12-28T01:22:53;9;;;8;;
80619;SDS011;69979;53.682;-2.690;2023-12-28T01:25:19;7;;;5;;
80619;SDS011;69979;53.682;-2.690;2023-12-28T01:27:44;9;;;8;;
80619;SDS011;69979;53.682;-2.690;2023-12-28T01:30:10;5;;;5;;
80619;SDS011;69979;53.682;-2.690;2023-12-28T01:32:35;8;;;8;;
80619;SDS011;69979;53.682;-2.690;2023-12-28T01:35:01;9;;;9;;
80619;SDS011;69979;53.682;-2.690;2023-12-28T01:37:27;5;;;5;;
80619;SDS011;69979;53.682;-2.690;2023-12-28T01:39:52;11;;;11;;
80619;SDS011;69979;53.682;-2.690;2023-12-28T01:42:17;8;;;5;;
80619;SDS011;69979;53.682;-2.690;2023-12-28T01:44:43;7;;;5;;
80619;SDS011;69979;53.682;-2.690;2023-12-28T01:47:08;6;;;4;;
80619;SDS011;69979;53.682;-2.690;2023-12-28T01:49:34;11;;;6;;
80619;SDS011;69979;53.682;-2.690;2023-12-28T01:52:00;11;;;8;;
80619;SDS011;69979;53.682;-2.690;2023-12-28T01:54:26;11;;;8;;
80619;SDS011;69979;53.682;-2.690;2023-12-28T01:56:51;9;;;5;;
80619;SDS011;69979;53.682;-2.690;2023-12-28T01:59:16;9;;;6;;
80619;SDS011;69979;53.682;-2.690;2023-12-28T02:01:42;7;;;5;;
80619;SDS011;69979;53.682;-2.690;2023-12-28T02:04:07;6;;;5;;
80619;SDS011;69979;53.682;-2.690;2023-12-28T02:06:33;6;;;5;;
80619;SDS011;69979;53.682;-2.690;2023-12-28T02:08:58;9;;;7;;
80619;SDS011;69979;53.682;-2.690;2023-12-28T02:11:24;8;;;6;;
80619;SDS011;69979;53.682;-2.690;2023-12-28T02:13:49;16;;;10;;
80619;SDS011;69979;53.682;-2.690;2023-12-28T02:16:16;10;;;8;;
80619;SDS011;69979;53.682;-2.690;2023-12-28T02:18:42;9;;;9;;
80619;SDS011;69979;53.682;-2.690;2023-12-28T02:21:06;9;;;8;;
80619;SDS011;69979;53.682;-2.690;2023-12-28T02:23:32;9;;;8;;
80619;SDS011;69979;53.682;-2.690;2023-12-28T02:25:57;7;;;5;;
80619;SDS011;69979;53.682;-2.690;2023-12-28T02:28:22;10;;;9;;
80619;SDS011;69979;53.682;-2.690;2023-12-28T02:30:48;7;;;5;;
80619;SDS011;69979;53.682;-2.690;2023-12-28T02:33:15;7;;;5;;
80619;SDS011;69979;53.682;-2.690;2023-12-28T02:35:40;5;;;5;;
80619;SDS011;69979;53.682;-2.690;2023-12-28T02:38:05;3;;;2;;
80619;SDS011;69979;53.682;-2.690;2023-12-28T02:40:30;11;;;10;;
80619;SDS011;69979;53.682;-2.690;2023-12-28T02:42:55;6;;;5;;
80619;SDS011;69979;53.682;-2.690;2023-12-28T02:45:20;5;;;4;;
80619;SDS011;69979;53.682;-2.690;2023-12-28T02:47:46;9;;;5;;
80619;SDS011;69979;53.682;-2.690;2023-12-28T02:50:12;7;;;3;;
80619;SDS011;69979;53.682;-2.690;2023-12-28T02:52:37;4;;;3;;
80619;SDS011;69979;53.682;-2.690;2023-12-28T02:55:03;4;;;4;;
80619;SDS011;69979;53.682;-2.690;2023-12-28T02:57:28;3;;;3;;
80619;SDS011;69979;53.682;-2.690;2023-12-28T02:59:53;4;;;3;;
80619;SDS011;69979;53.682;-2.690;2023-12-28T03:02:19;2;;;2;;
80619;SDS011;69979;53.682;-2.690;2023-12-28T03:04:45;1;;;1;;
80619;SDS011;69979;53.682;-2.690;2023-12-28T03:07:10;3;;;3;;
80619;SDS011;69979;53.682;-2.690;2023-12-28T03:09:36;3;;;3;;
80619;SDS011;69979;53.682;-2.690;2023-12-28T03:12:02;4;;;3;;
80619;SDS011;69979;53.682;-2.690;2023-12-28T03:14:27;4;;;3;;
80619;SDS011;69979;53.682;-2.690;2023-12-28T03:16:53;5;;;4;;
80619;SDS011;69979;53.682;-2.690;2023-12-28T03:19:18;2;;;2;;
80619;SDS011;69979;53.682;-2.690;2023-12-28T03:21:44;3;;;3;;
80619;SDS011;69979;53.682;-2.690;2023-12-28T03:24:09;3;;;2;;
80619;SDS011;69979;53.682;-2.690;2023-12-28T03:26:37;2;;;2;;
80619;SDS011;69979;53.682;-2.690;2023-12-28T03:29:01;3;;;2;;
80619;SDS011;69979;53.682;-2.690;2023-12-28T03:31:26;4;;;4;;
80619;SDS011;69979;53.682;-2.690;2023-12-28T03:33:52;3;;;2;;
80619;SDS011;69979;53.682;-2.690;2023-12-28T03:36:18;3;;;3;;
80619;SDS011;69979;53.682;-2.690;2023-12-28T03:38:43;3;;;3;;
80619;SDS011;69979;53.682;-2.690;2023-12-28T03:43:34;3;;;2;;
80619;SDS011;69979;53.682;-2.690;2023-12-28T03:46:00;3;;;1;;
80619;SDS011;69979;53.682;-2.690;2023-12-28T03:48:26;4;;;4;;
80619;SDS011;69979;53.682;-2.690;2023-12-28T03:50:51;3;;;2;;
80619;SDS011;69979;53.682;-2.690;2023-12-28T03:53:17;5;;;4;;
80619;SDS011;69979;53.682;-2.690;2023-12-28T03:55:43;4;;;3;;
80619;SDS011;69979;53.682;-2.690;2023-12-28T03:58:08;7;;;4;;
80619;SDS011;69979;53.682;-2.690;2023-12-28T04:00:35;8;;;7;;
80619;SDS011;69979;53.682;-2.690;2023-12-28T04:02:59;3;;;3;;
80619;SDS011;69979;53.682;-2.690;2023-12-28T04:05:24;2;;;2;;
80619;SDS011;69979;53.682;-2.690;2023-12-28T04:07:50;2;;;2;;
80619;SDS011;69979;53.682;-2.690;2023-12-28T04:10:19;4;;;4;;
80619;SDS011;69979;53.682;-2.690;2023-12-28T04:12:41;4;;;2;;
80619;SDS011;69979;53.682;-2.690;2023-12-28T04:15:07;2;;;2;;
80619;SDS011;69979;53.682;-2.690;2023-12-28T04:17:33;2;;;2;;
80619;SDS011;69979;53.682;-2.690;2023-12-28T04:19:58;5;;;2;;
80619;SDS011;69979;53.682;-2.690;2023-12-28T04:22:24;2;;;2;;
80619;SDS011;69979;53.682;-2.690;2023-12-28T04:24:50;5;;;4;;
80619;SDS011;69979;53.682;-2.690;2023-12-28T04:27:15;1;;;1;;
80619;SDS011;69979;53.682;-2.690;2023-12-28T04:29:41;2;;;2;;
80619;SDS011;69979;53.682;-2.690;2023-12-28T04:32:07;3;;;2;;
80619;SDS011;69979;53.682;-2.690;2023-12-28T04:34:32;1;;;1;;
80619;SDS011;69979;53.682;-2.690;2023-12-28T04:36:58;1;;;1;;
80619;SDS011;69979;53.682;-2.690;2023-12-28T04:39:24;4;;;2;;
80619;SDS011;69979;53.682;-2.690;2023-12-28T04:41:49;3;;;3;;
80619;SDS011;69979;53.682;-2.690;2023-12-28T04:44:15;3;;;2;;
80619;SDS011;69979;53.682;-2.690;2023-12-28T04:46:41;4;;;3;;
80619;SDS011;69979;53.682;-2.690;2023-12-28T04:49:06;7;;;5;;
80619;SDS011;69979;53.682;-2.690;2023-12-28T04:51:32;5;;;4;;
80619;SDS011;69979;53.682;-2.690;2023-12-28T04:53:58;7;;;5;;
80619;SDS011;69979;53.682;-2.690;2023-12-28T04:56:23;3;;;2;;
80619;SDS011;69979;53.682;-2.690;2023-12-28T04:58:49;4;;;4;;
80619;SDS011;69979;53.682;-2.690;2023-12-28T05:01:15;5;;;3;;
80619;SDS011;69979;53.682;-2.690;2023-12-28T05:03:40;4;;;3;;
80619;SDS011;69979;53.682;-2.690;2023-12-28T05:06:06;3;;;3;;
80619;SDS011;69979;53.682;-2.690;2023-12-28T05:08:31;7;;;4;;
80619;SDS011;69979;53.682;-2.690;2023-12-28T05:10:57;3;;;1;;
80619;SDS011;69979;53.682;-2.690;2023-12-28T05:13:23;5;;;4;;
80619;SDS011;69979;53.682;-2.690;2023-12-28T05:15:48;4;;;4;;
80619;SDS011;69979;53.682;-2.690;2023-12-28T05:18:14;1;;;1;;
80619;SDS011;69979;53.682;-2.690;2023-12-28T05:20:39;5;;;4;;
80619;SDS011;69979;53.682;-2.690;2023-12-28T05:23:05;3;;;3;;
80619;SDS011;69979;53.682;-2.690;2023-12-28T05:25:30;3;;;3;;
80619;SDS011;69979;53.682;-2.690;2023-12-28T05:27:56;3;;;1;;
80619;SDS011;69979;53.682;-2.690;2023-12-28T05:30:22;3;;;3;;
80619;SDS011;69979;53.682;-2.690;2023-12-28T05:32:47;2;;;2;;
80619;SDS011;69979;53.682;-2.690;2023-12-28T05:35:13;3;;;3;;
80619;SDS011;69979;53.682;-2.690;2023-12-28T05:37:38;3;;;3;;
80619;SDS011;69979;53.682;-2.690;2023-12-28T05:40:04;3;;;3;;
80619;SDS011;69979;53.682;-2.690;2023-12-28T05:42:29;4;;;3;;
80619;SDS011;69979;53.682;-2.690;2023-12-28T05:44:55;5;;;5;;
80619;SDS011;69979;53.682;-2.690;2023-12-28T05:47:21;3;;;2;;
80619;SDS011;69979;53.682;-2.690;2023-12-28T05:49:46;3;;;2;;
80619;SDS011;69979;53.682;-2.690;2023-12-28T05:52:11;3;;;3;;
80619;SDS011;69979;53.682;-2.690;2023-12-28T05:54:37;4;;;2;;
80619;SDS011;69979;53.682;-2.690;2023-12-28T05:57:03;6;;;3;;
80619;SDS011;69979;53.682;-2.690;2023-12-28T05:59:28;2;;;2;;
80619;SDS011;69979;53.682;-2.690;2023-12-28T06:01:54;2;;;1;;
80619;SDS011;69979;53.682;-2.690;2023-12-28T06:04:20;1;;;1;;
80619;SDS011;69979;53.682;-2.690;2023-12-28T06:06:45;4;;;3;;
80619;SDS011;69979;53.682;-2.690;2023-12-28T06:09:11;3;;;3;;
80619;SDS011;69979;53.682;-2.690;2023-12-28T06:11:36;1;;;1;;
80619;SDS011;69979;53.682;-2.690;2023-12-28T06:14:02;2;;;1;;
80619;SDS011;69979;53.682;-2.690;2023-12-28T06:16:28;3;;;2;;
80619;SDS011;69979;53.682;-2.690;2023-12-28T06:18:53;2;;;2;;
80619;SDS011;69979;53.682;-2.690;2023-12-28T06:21:19;0;;;0;;
80619;SDS011;69979;53.682;-2.690;2023-12-28T06:23:45;3;;;2;;
80619;SDS011;69979;53.682;-2.690;2023-12-28T06:26:10;4;;;3;;
80619;SDS011;69979;53.682;-2.690;2023-12-28T06:28:36;1;;;1;;
80619;SDS011;69979;53.682;-2.690;2023-12-28T06:31:02;4;;;3;;
80619;SDS011;69979;53.682;-2.690;2023-12-28T06:33:27;3;;;2;;
80619;SDS011;69979;53.682;-2.690;2023-12-28T06:35:53;2;;;2;;
80619;SDS011;69979;53.682;-2.690;2023-12-28T06:38:19;1;;;1;;
80619;SDS011;69979;53.682;-2.690;2023-12-28T06:40:44;1;;;1;;
80619;SDS011;69979;53.682;-2.690;2023-12-28T06:43:10;2;;;2;;
80619;SDS011;69979;53.682;-2.690;2023-12-28T06:45:36;2;;;2;;
80619;SDS011;69979;53.682;-2.690;2023-12-28T06:48:01;3;;;3;;
80619;SDS011;69979;53.682;-2.690;2023-12-28T06:50:27;1;;;0;;
80619;SDS011;69979;53.682;-2.690;2023-12-28T06:52:52;0;;;0;;
80619;SDS011;69979;53.682;-2.690;2023-12-28T06:55:18;3;;;2;;
80619;SDS011;69979;53.682;-2.690;2023-12-28T06:57:43;2;;;2;;
80619;SDS011;69979;53.682;-2.690;2023-12-28T07:00:10;3;;;2;;
80619;SDS011;69979;53.682;-2.690;2023-12-28T07:02:35;2;;;2;;
80619;SDS011;69979;53.682;-2.690;2023-12-28T07:05:00;2;;;2;;
80619;SDS011;69979;53.682;-2.690;2023-12-28T07:07:26;3;;;2;;
80619;SDS011;69979;53.682;-2.690;2023-12-28T07:09:52;1;;;1;;
80619;SDS011;69979;53.682;-2.690;2023-12-28T07:12:17;3;;;2;;
80619;SDS011;69979;53.682;-2.690;2023-12-28T07:14:43;4;;;3;;
80619;SDS011;69979;53.682;-2.690;2023-12-28T07:17:09;1;;;1;;
80619;SDS011;69979;53.682;-2.690;2023-12-28T07:19:34;2;;;1;;
80619;SDS011;69979;53.682;-2.690;2023-12-28T07:22:00;2;;;2;;
80619;SDS011;69979;53.682;-2.690;2023-12-28T07:24:25;3;;;3;;
80619;SDS011;69979;53.682;-2.690;2023-12-28T07:26:51;4;;;4;;
80619;SDS011;69979;53.682;-2.690;2023-12-28T07:29:17;1;;;1;;
80619;SDS011;69979;53.682;-2.690;2023-12-28T07:31:42;3;;;3;;
80619;SDS011;69979;53.682;-2.690;2023-12-28T07:34:08;2;;;2;;
80619;SDS011;69979;53.682;-2.690;2023-12-28T07:36:33;3;;;3;;
80619;SDS011;69979;53.682;-2.690;2023-12-28T07:38:59;3;;;3;;
80619;SDS011;69979;53.682;-2.690;2023-12-28T07:41:25;3;;;2;;
80619;SDS011;69979;53.682;-2.690;2023-12-28T07:43:50;3;;;3;;
80619;SDS011;69979;53.682;-2.690;2023-12-28T07:46:16;5;;;4;;
80619;SDS011;69979;53.682;-2.690;2023-12-28T07:48:42;1;;;1;;
80619;SDS011;69979;53.682;-2.690;2023-12-28T07:51:07;4;;;3;;
80619;SDS011;69979;53.682;-2.690;2023-12-28T07:53:33;2;;;2;;
80619;SDS011;69979;53.682;-2.690;2023-12-28T07:55:58;5;;;4;;
80619;SDS011;69979;53.682;-2.690;2023-12-28T07:58:24;6;;;4;;
80619;SDS011;69979;53.682;-2.690;2023-12-28T08:00:50;3;;;1;;
80619;SDS011;69979;53.682;-2.690;2023-12-28T08:03:15;5;;;5;;
80619;SDS011;69979;53.682;-2.690;2023-12-28T08:05:41;4;;;3;;
80619;SDS011;69979;53.682;-2.690;2023-12-28T08:08:07;5;;;4;;
80619;SDS011;69979;53.682;-2.690;2023-12-28T08:10:32;3;;;2;;
80619;SDS011;69979;53.682;-2.690;2023-12-28T08:12:57;3;;;2;;
80619;SDS011;69979;53.682;-2.690;2023-12-28T08:15:23;3;;;3;;
80619;SDS011;69979;53.682;-2.690;2023-12-28T08:17:49;4;;;3;;
80619;SDS011;69979;53.682;-2.690;2023-12-28T08:20:14;3;;;3;;
80619;SDS011;69979;53.682;-2.690;2023-12-28T08:22:40;3;;;2;;
80619;SDS011;69979;53.682;-2.690;2023-12-28T08:25:06;2;;;2;;
80619;SDS011;69979;53.682;-2.690;2023-12-28T08:27:31;3;;;2;;
80619;SDS011;69979;53.682;-2.690;2023-12-28T08:29:57;2;;;2;;
80619;SDS011;69979;53.682;-2.690;2023-12-28T08:32:22;2;;;2;;
80619;SDS011;69979;53.682;-2.690;2023-12-28T08:34:48;2;;;2;;
80619;SDS011;69979;53.682;-2.690;2023-12-28T08:37:14;3;;;3;;
80619;SDS011;69979;53.682;-2.690;2023-12-28T08:39:39;4;;;3;;
80619;SDS011;69979;53.682;-2.690;2023-12-28T08:42:05;2;;;2;;
80619;SDS011;69979;53.682;-2.690;2023-12-28T08:44:31;4;;;3;;
80619;SDS011;69979;53.682;-2.690;2023-12-28T08:46:56;4;;;3;;
80619;SDS011;69979;53.682;-2.690;2023-12-28T08:49:22;2;;;2;;
80619;SDS011;69979;53.682;-2.690;2023-12-28T08:51:47;3;;;3;;
80619;SDS011;69979;53.682;-2.690;2023-12-28T08:54:12;3;;;3;;
80619;SDS011;69979;53.682;-2.690;2023-12-28T08:56:38;2;;;2;;
80619;SDS011;69979;53.682;-2.690;2023-12-28T08:59:04;3;;;2;;
80619;SDS011;69979;53.682;-2.690;2023-12-28T09:01:29;2;;;2;;
80619;SDS011;69979;53.682;-2.690;2023-12-28T09:03:55;2;;;2;;
80619;SDS011;69979;53.682;-2.690;2023-12-28T09:06:21;4;;;3;;
80619;SDS011;69979;53.682;-2.690;2023-12-28T09:08:48;4;;;2;;
80619;SDS011;69979;53.682;-2.690;2023-12-28T09:11:12;2;;;2;;
80619;SDS011;69979;53.682;-2.690;2023-12-28T09:13:37;2;;;2;;
80619;SDS011;69979;53.682;-2.690;2023-12-28T09:16:03;2;;;2;;
80619;SDS011;69979;53.682;-2.690;2023-12-28T09:18:28;3;;;2;;
80619;SDS011;69979;53.682;-2.690;2023-12-28T09:20:54;3;;;1;;
80619;SDS011;69979;53.682;-2.690;2023-12-28T09:23:20;3;;;2;;
80619;SDS011;69979;53.682;-2.690;2023-12-28T09:25:47;1;;;1;;
80619;SDS011;69979;53.682;-2.690;2023-12-28T09:28:13;2;;;2;;
80619;SDS011;69979;53.682;-2.690;2023-12-28T09:30:38;1;;;1;;
80619;SDS011;69979;53.682;-2.690;2023-12-28T09:33:04;1;;;1;;
80619;SDS011;69979;53.682;-2.690;2023-12-28T09:35:29;2;;;1;;
80619;SDS011;69979;53.682;-2.690;2023-12-28T09:37:55;3;;;3;;
80619;SDS011;69979;53.682;-2.690;2023-12-28T09:40:20;3;;;2;;
80619;SDS011;69979;53.682;-2.690;2023-12-28T09:42:48;3;;;1;;
80619;SDS011;69979;53.682;-2.690;2023-12-28T09:45:11;2;;;2;;
80619;SDS011;69979;53.682;-2.690;2023-12-28T09:47:37;1;;;1;;
80619;SDS011;69979;53.682;-2.690;2023-12-28T09:50:03;3;;;3;;
80619;SDS011;69979;53.682;-2.690;2023-12-28T09:52:28;4;;;3;;
80619;SDS011;69979;53.682;-2.690;2023-12-28T09:54:54;3;;;2;;
80619;SDS011;69979;53.682;-2.690;2023-12-28T09:57:19;2;;;2;;
80619;SDS011;69979;53.682;-2.690;2023-12-28T09:59:45;2;;;2;;
80619;SDS011;69979;53.682;-2.690;2023-12-28T10:02:10;5;;;4;;
80619;SDS011;69979;53.682;-2.690;2023-12-28T10:04:36;3;;;2;;
80619;SDS011;69979;53.682;-2.690;2023-12-28T10:07:02;3;;;3;;
80619;SDS011;69979;53.682;-2.690;2023-12-28T10:09:27;4;;;2;;
80619;SDS011;69979;53.682;-2.690;2023-12-28T10:11:53;3;;;3;;
80619;SDS011;69979;53.682;-2.690;2023-12-28T10:14:19;4;;;2;;
80619;SDS011;69979;53.682;-2.690;2023-12-28T10:16:44;5;;;3;;
80619;SDS011;69979;53.682;-2.690;2023-12-28T10:19:10;3;;;3;;
80619;SDS011;69979;53.682;-2.690;2023-12-28T10:21:36;4;;;4;;
80619;SDS011;69979;53.682;-2.690;2023-12-28T10:24:01;5;;;4;;
80619;SDS011;69979;53.682;-2.690;2023-12-28T10:26:26;5;;;4;;
80619;SDS011;69979;53.682;-2.690;2023-12-28T10:28:56;6;;;4;;
80619;SDS011;69979;53.682;-2.690;2023-12-28T10:31:18;3;;;3;;
80619;SDS011;69979;53.682;-2.690;2023-12-28T10:33:43;4;;;3;;
80619;SDS011;69979;53.682;-2.690;2023-12-28T10:36:08;3;;;3;;
80619;SDS011;69979;53.682;-2.690;2023-12-28T10:38:34;6;;;4;;
80619;SDS011;69979;53.682;-2.690;2023-12-28T10:41:00;5;;;5;;
80619;SDS011;69979;53.682;-2.690;2023-12-28T10:43:25;4;;;4;;
80619;SDS011;69979;53.682;-2.690;2023-12-28T10:45:51;5;;;3;;
80619;SDS011;69979;53.682;-2.690;2023-12-28T10:48:17;3;;;3;;
80619;SDS011;69979;53.682;-2.690;2023-12-28T10:50:42;9;;;8;;
80619;SDS011;69979;53.682;-2.690;2023-12-28T10:53:11;5;;;5;;
80619;SDS011;69979;53.682;-2.690;2023-12-28T10:55:34;5;;;4;;
80619;SDS011;69979;53.682;-2.690;2023-12-28T10:57:59;5;;;4;;
80619;SDS011;69979;53.682;-2.690;2023-12-28T11:00:24;4;;;4;;
80619;SDS011;69979;53.682;-2.690;2023-12-28T11:02:52;5;;;4;;
80619;SDS011;69979;53.682;-2.690;2023-12-28T11:05:14;5;;;4;;
80619;SDS011;69979;53.682;-2.690;2023-12-28T11:07:40;3;;;3;;
80619;SDS011;69979;53.682;-2.690;2023-12-28T11:10:06;4;;;4;;
80619;SDS011;69979;53.682;-2.690;2023-12-28T11:12:31;5;;;4;;
80619;SDS011;69979;53.682;-2.690;2023-12-28T11:14:57;6;;;4;;
80619;SDS011;69979;53.682;-2.690;2023-12-28T11:17:22;5;;;4;;
80619;SDS011;69979;53.682;-2.690;2023-12-28T11:19:48;5;;;4;;
80619;SDS011;69979;53.682;-2.690;2023-12-28T11:22:14;4;;;4;;
80619;SDS011;69979;53.682;-2.690;2023-12-28T11:24:39;5;;;4;;
80619;SDS011;69979;53.682;-2.690;2023-12-28T11:27:04;5;;;3;;
80619;SDS011;69979;53.682;-2.690;2023-12-28T11:29:30;4;;;3;;
80619;SDS011;69979;53.682;-2.690;2023-12-28T11:31:57;3;;;3;;
80619;SDS011;69979;53.682;-2.690;2023-12-28T11:34:24;6;;;5;;
80619;SDS011;69979;53.682;-2.690;2023-12-28T11:36:48;4;;;3;;
80619;SDS011;69979;53.682;-2.690;2023-12-28T11:39:13;2;;;1;;
80619;SDS011;69979;53.682;-2.690;2023-12-28T11:41:38;3;;;2;;
80619;SDS011;69979;53.682;-2.690;2023-12-28T11:44:04;2;;;2;;
80619;SDS011;69979;53.682;-2.690;2023-12-28T11:46:29;2;;;1;;
80619;SDS011;69979;53.682;-2.690;2023-12-28T11:51:21;1;;;1;;
80619;SDS011;69979;53.682;-2.690;2023-12-28T11:53:46;2;;;1;;
80619;SDS011;69979;53.682;-2.690;2023-12-28T11:56:14;1;;;1;;
80619;SDS011;69979;53.682;-2.690;2023-12-28T11:58:37;2;;;2;;
80619;SDS011;69979;53.682;-2.690;2023-12-28T12:01:03;2;;;2;;
80619;SDS011;69979;53.682;-2.690;2023-12-28T12:03:29;1;;;0;;
80619;SDS011;69979;53.682;-2.690;2023-12-28T12:05:55;0;;;0;;
80619;SDS011;69979;53.682;-2.690;2023-12-28T12:08:20;2;;;2;;
80619;SDS011;69979;53.682;-2.690;2023-12-28T12:10:46;0;;;0;;
80619;SDS011;69979;53.682;-2.690;2023-12-28T12:13:11;1;;;1;;
80619;SDS011;69979;53.682;-2.690;2023-12-28T12:15:37;2;;;1;;
80619;SDS011;69979;53.682;-2.690;2023-12-28T12:18:03;1;;;1;;
80619;SDS011;69979;53.682;-2.690;2023-12-28T12:20:28;2;;;1;;
80619;SDS011;69979;53.682;-2.690;2023-12-28T12:22:56;0;;;0;;
80619;SDS011;69979;53.682;-2.690;2023-12-28T12:25:19;2;;;1;;
80619;SDS011;69979;53.682;-2.690;2023-12-28T12:27:45;2;;;1;;
80619;SDS011;69979;53.682;-2.690;2023-12-28T12:30:12;3;;;1;;
80619;SDS011;69979;53.682;-2.690;2023-12-28T12:32:37;1;;;0;;
80619;SDS011;69979;53.682;-2.690;2023-12-28T12:35:03;3;;;3;;
80619;SDS011;69979;53.682;-2.690;2023-12-28T12:37:29;2;;;2;;
80619;SDS011;69979;53.682;-2.690;2023-12-28T12:39:54;1;;;1;;
80619;SDS011;69979;53.682;-2.690;2023-12-28T12:42:19;2;;;2;;
80619;SDS011;69979;53.682;-2.690;2023-12-28T12:44:45;4;;;4;;
80619;SDS011;69979;53.682;-2.690;2023-12-28T12:47:10;5;;;4;;
80619;SDS011;69979;53.682;-2.690;2023-12-28T12:49:35;4;;;3;;
80619;SDS011;69979;53.682;-2.690;2023-12-28T12:52:01;3;;;2;;
80619;SDS011;69979;53.682;-2.690;2023-12-28T12:54:27;3;;;3;;
80619;SDS011;69979;53.682;-2.690;2023-12-28T12:56:52;1;;;1;;
80619;SDS011;69979;53.682;-2.690;2023-12-28T12:59:18;2;;;1;;
80619;SDS011;69979;53.682;-2.690;2023-12-28T13:01:44;3;;;3;;
80619;SDS011;69979;53.682;-2.690;2023-12-28T13:04:09;4;;;3;;
80619;SDS011;69979;53.682;-2.690;2023-12-28T13:06:34;3;;;3;;
80619;SDS011;69979;53.682;-2.690;2023-12-28T13:09:00;2;;;1;;
80619;SDS011;69979;53.682;-2.690;2023-12-28T13:11:26;3;;;2;;
80619;SDS011;69979;53.682;-2.690;2023-12-28T13:13:51;2;;;2;;
80619;SDS011;69979;53.682;-2.690;2023-12-28T13:16:17;1;;;0;;
80619;SDS011;69979;53.682;-2.690;2023-12-28T13:18:43;3;;;3;;
80619;SDS011;69979;53.682;-2.690;2023-12-28T13:21:08;3;;;2;;
80619;SDS011;69979;53.682;-2.690;2023-12-28T13:23:34;6;;;4;;
80619;SDS011;69979;53.682;-2.690;2023-12-28T13:25:59;3;;;3;;
80619;SDS011;69979;53.682;-2.690;2023-12-28T13:28:24;3;;;3;;
80619;SDS011;69979;53.682;-2.690;2023-12-28T13:30:50;5;;;3;;
80619;SDS011;69979;53.682;-2.690;2023-12-28T13:33:15;7;;;6;;
80619;SDS011;69979;53.682;-2.690;2023-12-28T13:35:41;4;;;3;;
80619;SDS011;69979;53.682;-2.690;2023-12-28T13:38:07;5;;;4;;
80619;SDS011;69979;53.682;-2.690;2023-12-28T13:40:33;6;;;3;;
80619;SDS011;69979;53.682;-2.690;2023-12-28T13:42:58;6;;;6;;
80619;SDS011;69979;53.682;-2.690;2023-12-28T13:45:24;10;;;7;;
80619;SDS011;69979;53.682;-2.690;2023-12-28T13:47:49;9;;;7;;
80619;SDS011;69979;53.682;-2.690;2023-12-28T13:50:15;4;;;3;;
80619;SDS011;69979;53.682;-2.690;2023-12-28T13:52:40;6;;;5;;
80619;SDS011;69979;53.682;-2.690;2023-12-28T13:55:06;4;;;4;;
80619;SDS011;69979;53.682;-2.690;2023-12-28T13:57:31;6;;;5;;
80619;SDS011;69979;53.682;-2.690;2023-12-28T13:59:58;5;;;4;;
80619;SDS011;69979;53.682;-2.690;2023-12-28T14:02:22;5;;;4;;
80619;SDS011;69979;53.682;-2.690;2023-12-28T14:04:48;5;;;4;;
80619;SDS011;69979;53.682;-2.690;2023-12-28T14:07:13;4;;;4;;
80619;SDS011;69979;53.682;-2.690;2023-12-28T14:09:39;6;;;5;;
80619;SDS011;69979;53.682;-2.690;2023-12-28T14:12:05;2;;;2;;
80619;SDS011;69979;53.682;-2.690;2023-12-28T14:14:30;5;;;5;;
80619;SDS011;69979;53.682;-2.690;2023-12-28T14:16:55;4;;;4;;
80619;SDS011;69979;53.682;-2.690;2023-12-28T14:19:21;2;;;2;;
80619;SDS011;69979;53.682;-2.690;2023-12-28T14:21:47;3;;;2;;
80619;SDS011;69979;53.682;-2.690;2023-12-28T14:24:12;4;;;2;;
80619;SDS011;69979;53.682;-2.690;2023-12-28T14:26:40;2;;;2;;
80619;SDS011;69979;53.682;-2.690;2023-12-28T14:29:03;5;;;4;;
80619;SDS011;69979;53.682;-2.690;2023-12-28T14:31:28;1;;;1;;
80619;SDS011;69979;53.682;-2.690;2023-12-28T14:33:54;6;;;3;;
80619;SDS011;69979;53.682;-2.690;2023-12-28T14:36:21;3;;;2;;
80619;SDS011;69979;53.682;-2.690;2023-12-28T14:38:44;4;;;3;;
80619;SDS011;69979;53.682;-2.690;2023-12-28T14:41:10;2;;;2;;
80619;SDS011;69979;53.682;-2.690;2023-12-28T14:43:36;2;;;2;;
80619;SDS011;69979;53.682;-2.690;2023-12-28T14:46:01;3;;;2;;
80619;SDS011;69979;53.682;-2.690;2023-12-28T14:48:27;3;;;2;;
80619;SDS011;69979;53.682;-2.690;2023-12-28T14:50:53;1;;;1;;
80619;SDS011;69979;53.682;-2.690;2023-12-28T14:53:18;5;;;3;;
80619;SDS011;69979;53.682;-2.690;2023-12-28T14:55:44;4;;;3;;
80619;SDS011;69979;53.682;-2.690;2023-12-28T14:58:09;4;;;2;;
80619;SDS011;69979;53.682;-2.690;2023-12-28T15:00:35;6;;;4;;
80619;SDS011;69979;53.682;-2.690;2023-12-28T15:03:01;1;;;1;;
80619;SDS011;69979;53.682;-2.690;2023-12-28T15:05:26;5;;;3;;
80619;SDS011;69979;53.682;-2.690;2023-12-28T15:07:52;5;;;3;;
80619;SDS011;69979;53.682;-2.690;2023-12-28T15:10:18;4;;;3;;
80619;SDS011;69979;53.682;-2.690;2023-12-28T15:12:43;3;;;3;;
80619;SDS011;69979;53.682;-2.690;2023-12-28T15:15:09;2;;;2;;
80619;SDS011;69979;53.682;-2.690;2023-12-28T15:17:34;3;;;3;;
80619;SDS011;69979;53.682;-2.690;2023-12-28T15:20:00;2;;;2;;
80619;SDS011;69979;53.682;-2.690;2023-12-28T15:22:25;1;;;1;;
80619;SDS011;69979;53.682;-2.690;2023-12-28T15:24:51;2;;;2;;
80619;SDS011;69979;53.682;-2.690;2023-12-28T15:27:16;2;;;1;;
80619;SDS011;69979;53.682;-2.690;2023-12-28T15:29:42;2;;;1;;
80619;SDS011;69979;53.682;-2.690;2023-12-28T15:32:08;3;;;2;;
80619;SDS011;69979;53.682;-2.690;2023-12-28T15:34:34;2;;;2;;
80619;SDS011;69979;53.682;-2.690;2023-12-28T15:36:59;2;;;2;;
80619;SDS011;69979;53.682;-2.690;2023-12-28T15:39:25;2;;;2;;
80619;SDS011;69979;53.682;-2.690;2023-12-28T15:41:50;1;;;1;;
80619;SDS011;69979;53.682;-2.690;2023-12-28T15:44:16;3;;;2;;
80619;SDS011;69979;53.682;-2.690;2023-12-28T15:46:41;3;;;3;;
80619;SDS011;69979;53.682;-2.690;2023-12-28T15:49:07;3;;;2;;
80619;SDS011;69979;53.682;-2.690;2023-12-28T15:51:33;1;;;1;;